»·PEaware :: N335AK KLAS-KSAC

N335AK :: KLAS-KSAC

FLIGHT INFORMATION

Flight Status: Arrived
Operator: Privately registered:
United States
More flights under this callsign
Pilot: Gabor H. (24209)
Aircraft: Unknown
(EPIC)
More flights by this aircraft type
Origin: KLAS McCarran Intl
United States
Destination: KSAC Sacramento Executive
United States
More flights between these airports :: More routes between these airports
Route: +V105 LIDAT LIN
File this flight plan on PilotEdge
Remarks:
Altitude:
(Current/Filed)
30,000ft
Speed:
(Current/Filed)
325kts
Departed: 24-Nov-20 02:20 PM
Arrived: 24-Nov-20 03:44 PM
Distance/Time
Traveled:
336nm/1:23
Distance/Time
To Go:
Arrived

Flight Plot

Page will automatically refresh every two minutes.

Flight plan parsing failed; only flown route is shown


Map Options




Map Legend


Flown Route
Filed Route
Departure Airport
Arrival Airport
Navaid (VOR, NDB)
Fix

Horizontal Profiles

Position Reports

Time Latitude Longitude Heading Altitude Ground
Speed
24-Nov-20 14:00 36.080793 -115.170823 355 2169ft 0kts
24-Nov-20 14:01 36.080793 -115.170823 355 2169ft 0kts
24-Nov-20 14:02 36.080793 -115.170823 355 2169ft 0kts
24-Nov-20 14:03 36.080793 -115.170823 355 2169ft 0kts
24-Nov-20 14:04 36.080793 -115.170823 355 2169ft 0kts
24-Nov-20 14:05 36.080793 -115.170823 355 2169ft 0kts
24-Nov-20 14:06 36.080793 -115.170823 355 2169ft 0kts
24-Nov-20 14:07 36.080793 -115.170823 355 2169ft 0kts
24-Nov-20 14:08 36.080793 -115.170823 355 2169ft 0kts
24-Nov-20 14:09 36.080793 -115.170823 355 2169ft 0kts
24-Nov-20 14:10 36.080793 -115.170823 355 2169ft 0kts
24-Nov-20 14:11 36.080793 -115.170823 355 2169ft 0kts
24-Nov-20 14:12 36.081071 -115.170842 356 2168ft 8kts
24-Nov-20 14:13 36.081472 -115.170096 87 2166ft 0kts
24-Nov-20 14:14 36.083872 -115.167867 25 2156ft 25kts
24-Nov-20 14:15 36.089918 -115.164442 27 2131ft 21kts
24-Nov-20 14:16 36.095646 -115.161217 26 2103ft 21kts
24-Nov-20 14:17 36.099298 -115.158624 108 2089ft 14kts
24-Nov-20 14:18 36.098692 -115.157268 144 2085ft 18kts
24-Nov-20 14:20 36.079795 -115.167698 203 2551ft 183kts
24-Nov-20 14:21 36.076443 -115.227572 301 5279ft 214kts
24-Nov-20 14:22 36.107030 -115.292713 290 8536ft 227kts
24-Nov-20 14:23 36.100927 -115.370535 269 11862ft 231kts
24-Nov-20 14:24 36.092212 -115.449720 268 14801ft 239kts
24-Nov-20 14:25 36.081861 -115.542589 267 15005ft 296kts
24-Nov-20 14:26 36.070662 -115.641572 267 16425ft 282kts
24-Nov-20 14:27 36.060008 -115.735293 266 18233ft 271kts
24-Nov-20 14:28 36.049623 -115.825927 267 20045ft 263kts
24-Nov-20 14:29 36.039403 -115.914640 267 21815ft 261kts
24-Nov-20 14:30 36.033945 -116.003513 300 23148ft 253kts
24-Nov-20 14:31 36.084005 -116.062399 322 24321ft 251kts
24-Nov-20 14:32 36.139621 -116.115312 323 25344ft 253kts
24-Nov-20 14:33 36.195135 -116.167889 323 26357ft 250kts
24-Nov-20 14:34 36.249707 -116.219669 323 27361ft 246kts
24-Nov-20 14:35 36.303332 -116.270657 323 28360ft 241kts
24-Nov-20 14:36 36.355752 -116.320567 323 29355ft 235kts
24-Nov-20 14:37 36.406936 -116.369388 323 30158ft 235kts
24-Nov-20 14:37 36.451594 -116.412038 323 30166ft 251kts
24-Nov-20 14:39 36.517743 -116.475352 323 30162ft 262kts
24-Nov-20 14:39 36.565936 -116.521571 323 30161ft 265kts
24-Nov-20 14:41 36.634262 -116.587222 323 30160ft 266kts
24-Nov-20 14:41 36.682911 -116.634063 323 30159ft 266kts
24-Nov-20 14:42 36.741532 -116.690602 323 30163ft 267kts
24-Nov-20 14:43 36.800350 -116.747237 325 30160ft 267kts
24-Nov-20 14:44 36.861821 -116.798794 326 30168ft 266kts
24-Nov-20 14:45 36.923196 -116.850125 326 30182ft 266kts
24-Nov-20 14:46 36.984605 -116.901590 326 30195ft 265kts
24-Nov-20 14:47 37.045803 -116.952979 327 30195ft 265kts
24-Nov-20 14:48 37.106962 -117.004437 326 30202ft 265kts
24-Nov-20 14:49 37.168159 -117.056029 327 30205ft 266kts
24-Nov-20 14:50 37.229427 -117.107783 327 30204ft 266kts
24-Nov-20 14:51 37.290780 -117.159711 326 30203ft 266kts
24-Nov-20 14:52 37.351831 -117.211489 326 30201ft 265kts
24-Nov-20 14:53 37.413002 -117.263472 326 30200ft 265kts
24-Nov-20 14:54 37.443330 -117.348623 291 30200ft 279kts
24-Nov-20 14:55 37.461539 -117.443650 291 30185ft 279kts
24-Nov-20 14:56 37.479401 -117.538503 291 30169ft 279kts
24-Nov-20 14:57 37.497170 -117.633323 291 30159ft 278kts
24-Nov-20 14:58 37.514830 -117.728006 290 30160ft 278kts
24-Nov-20 14:59 37.532474 -117.823058 290 30150ft 278kts
24-Nov-20 15:00 37.549965 -117.917750 291 30146ft 278kts
24-Nov-20 15:01 37.567423 -118.012700 290 30145ft 277kts
24-Nov-20 15:02 37.584690 -118.107075 290 30144ft 276kts
24-Nov-20 15:03 37.601836 -118.201242 290 30143ft 276kts
24-Nov-20 15:04 37.618947 -118.295668 290 30142ft 276kts
24-Nov-20 15:05 37.635979 -118.390123 290 30152ft 276kts
24-Nov-20 15:06 37.652919 -118.484505 290 30169ft 276kts
24-Nov-20 15:07 37.669772 -118.578901 290 30185ft 276kts
24-Nov-20 15:08 37.686589 -118.673548 289 30191ft 277kts
24-Nov-20 15:09 37.703387 -118.768520 289 30191ft 278kts
24-Nov-20 15:10 37.720163 -118.863873 289 30190ft 279kts
24-Nov-20 15:11 37.736934 -118.959714 289 30189ft 279kts
24-Nov-20 15:12 37.753584 -119.055306 289 30188ft 279kts
24-Nov-20 15:13 37.770173 -119.151065 289 30181ft 279kts
24-Nov-20 15:14 37.786678 -119.246815 289 30178ft 279kts
24-Nov-20 15:15 37.803135 -119.342788 288 30177ft 279kts
24-Nov-20 15:16 37.819476 -119.438516 288 30176ft 278kts
24-Nov-20 15:17 37.835719 -119.534280 288 30175ft 278kts
24-Nov-20 15:18 37.851848 -119.629810 288 30171ft 278kts
24-Nov-20 15:19 37.867947 -119.725656 287 30176ft 278kts
24-Nov-20 15:20 37.883921 -119.821265 287 30171ft 279kts
24-Nov-20 15:21 37.899878 -119.917283 287 30161ft 278kts
24-Nov-20 15:22 37.916707 -120.018964 287 28620ft 312kts
24-Nov-20 15:23 37.934499 -120.127302 287 26772ft 315kts
24-Nov-20 15:24 37.952253 -120.235987 287 24950ft 319kts
24-Nov-20 15:25 37.970268 -120.346961 286 23099ft 324kts
24-Nov-20 15:26 37.988373 -120.459204 286 21232ft 328kts
24-Nov-20 15:27 38.006666 -120.573338 285 19335ft 333kts
24-Nov-20 15:28 38.024668 -120.686444 284 17456ft 319kts
24-Nov-20 15:29 38.041121 -120.790466 284 15734ft 313kts
24-Nov-20 15:30 38.082267 -120.885408 314 13548ft 291kts
24-Nov-20 15:31 38.133407 -120.957034 315 11867ft 259kts
24-Nov-20 15:32 38.180719 -121.023456 314 10401ft 256kts
24-Nov-20 15:33 38.229279 -121.091803 313 8902ft 265kts
24-Nov-20 15:34 38.278554 -121.160341 324 7368ft 257kts
24-Nov-20 15:35 38.339904 -121.203131 333 5912ft 251kts
24-Nov-20 15:36 38.401171 -121.245264 333 4412ft 250kts
24-Nov-20 15:37 38.461252 -121.286299 333 3742ft 247kts
24-Nov-20 15:38 38.515735 -121.335344 317 2626ft 213kts
24-Nov-20 15:39 38.543828 -121.387874 300 1605ft 136kts
24-Nov-20 15:40 38.558737 -121.429826 275 1239ft 108kts
24-Nov-20 15:41 38.548246 -121.465166 213 1001ft 107kts
24-Nov-20 15:42 38.524344 -121.485144 210 306ft 96kts
24-Nov-20 15:43 38.511355 -121.496832 270 22ft 0kts
24-Nov-20 15:44 38.512208 -121.496541 35 23ft 15kts
24-Nov-20 15:45 38.514893 -121.498051 306 23ft 12kts
24-Nov-20 15:46 38.514868 -121.499535 138 23ft 0kts
24-Nov-20 15:47 38.514868 -121.499535 138 23ft 0kts
24-Nov-20 15:48 38.514868 -121.499535 138 23ft 0kts

Navigation Log

Ident Type
Flight plan parsing failed, navigation log unavailable